createdAt,value
2022-09-28T00:01:16.814Z,96685.91
2022-09-28T00:03:45.476Z,96681.34
2022-09-28T00:06:18.678Z,96677.63
2022-09-28T00:08:47.099Z,96682.41
2022-09-28T00:11:16.251Z,96672.72
2022-09-28T00:13:46.089Z,96670.03
2022-09-28T00:16:19.827Z,96672.47
2022-09-28T00:18:50.166Z,96670.03
2022-09-28T00:21:21.740Z,96663.59
2022-09-28T00:24:10.395Z,96667.34
2022-09-28T00:26:39.067Z,96667.34
2022-09-28T00:29:07.628Z,96661.97
2022-09-28T00:31:39.600Z,96662.78
2022-09-28T00:34:15.636Z,96661.97
2022-09-28T00:36:53.838Z,96661.09
2022-09-28T00:39:38.712Z,96666.47
2022-09-28T00:42:14.955Z,96665.66
2022-09-28T00:44:55.081Z,96661.09
2022-09-28T00:47:43.530Z,96665.66
2022-09-28T00:50:22.754Z,96667.50
2022-09-28T00:52:59.178Z,96660.28
2022-09-28T00:55:39.609Z,96659.44
2022-09-28T00:58:19.399Z,96660.28
2022-09-28T01:00:52.429Z,96664.81
2022-09-28T01:03:25.162Z,96662.97
2022-09-28T01:05:56.963Z,96664.00
2022-09-28T01:08:29.143Z,96667.50
2022-09-28T01:10:57.616Z,96672.88
2022-09-28T01:13:26.553Z,96680.13
2022-09-28T01:15:59.674Z,96664.00
2022-09-28T01:18:33.885Z,96668.56
2022-09-28T01:21:03.387Z,96674.75
2022-09-28T01:24:11.031Z,96661.31
2022-09-28T01:27:12.006Z,96665.88
2022-09-28T01:29:48.665Z,96665.03
2022-09-28T01:32:25.292Z,96665.03
2022-09-28T01:34:58.763Z,96668.56
2022-09-28T01:37:32.156Z,96666.09
2022-09-28T01:40:00.795Z,96666.09
2022-09-28T01:42:32.258Z,96664.22
2022-09-28T01:45:05.917Z,96665.88
2022-09-28T01:47:37.205Z,96675.78
2022-09-28T01:50:09.606Z,96678.47
2022-09-28T01:52:42.772Z,96674.97
2022-09-28T01:55:13.314Z,96680.34
2022-09-28T01:57:44.567Z,96673.09
2022-09-28T02:00:15.077Z,96683.84
2022-09-28T02:02:48.386Z,96676.84
2022-09-28T02:05:18.536Z,96683.03
2022-09-28T02:07:49.946Z,96680.34
2022-09-28T02:10:21.115Z,96681.41
2022-09-28T02:12:53.050Z,96688.41
2022-09-28T02:15:24.527Z,96677.66
2022-09-28T02:17:53.015Z,96682.22
2022-09-28T02:20:21.699Z,96672.28
2022-09-28T02:22:51.924Z,96676.84
2022-09-28T02:25:26.772Z,96671.47
2022-09-28T02:27:58.727Z,96677.66
2022-09-28T02:30:27.131Z,96672.28
2022-09-28T02:32:59.081Z,96682.22
2022-09-28T02:35:27.418Z,96677.91
2022-09-28T02:37:56.061Z,96681.41
2022-09-28T02:40:27.956Z,96668.97
2022-09-28T02:43:03.545Z,96665.25
2022-09-28T02:45:49.379Z,96674.34
2022-09-28T02:48:43.071Z,96684.28
2022-09-28T02:51:21.119Z,96678.91
2022-09-28T02:54:27.790Z,96679.72
2022-09-28T02:57:11.637Z,96685.97
2022-09-28T02:59:50.815Z,96675.22
2022-09-28T03:02:29.216Z,96671.91
2022-09-28T03:05:20.907Z,96678.09
2022-09-28T03:07:57.043Z,96675.22
2022-09-28T03:10:29.878Z,96676.47
2022-09-28T03:12:58.217Z,96674.59
2022-09-28T03:15:29.249Z,96684.28
2022-09-28T03:17:57.891Z,96681.59
2022-09-28T03:20:26.452Z,96677.28
2022-09-28T03:23:12.724Z,96678.31
2022-09-28T03:25:43.327Z,96681.59
2022-09-28T03:28:11.831Z,96681.59
2022-09-28T03:30:43.538Z,96681.84
2022-09-28T03:33:12.040Z,96676.47
2022-09-28T03:35:40.783Z,96682.66
2022-09-28T03:38:09.301Z,96688.84
2022-09-28T03:40:37.898Z,96692.59
2022-09-28T03:43:06.404Z,96683.69
2022-09-28T03:45:34.963Z,96692.59
2022-09-28T03:48:04.973Z,96691.75
2022-09-28T03:50:33.524Z,96699.00
2022-09-28T03:53:05.489Z,96702.50
2022-09-28T03:55:34.430Z,96696.31
2022-09-28T03:58:02.889Z,96690.94
2022-09-28T04:00:31.420Z,96698.19
2022-09-28T04:03:00.040Z,96696.31
2022-09-28T04:05:29.946Z,96703.56
2022-09-28T04:07:58.751Z,96684.75
2022-09-28T04:10:27.321Z,96695.50
2022-09-28T04:12:56.748Z,96697.38
2022-09-28T04:15:25.411Z,96690.13
2022-09-28T04:17:54.266Z,96697.38
2022-09-28T04:20:22.919Z,96686.63
2022-09-28T04:22:52.833Z,96694.88
2022-09-28T04:25:21.355Z,96687.66
2022-09-28T04:28:08.011Z,96679.81
2022-09-28T04:30:36.975Z,96682.50
2022-09-28T04:33:05.527Z,96679.81
2022-09-28T04:35:34.302Z,96682.50
2022-09-28T04:38:05.113Z,96683.31
2022-09-28T04:40:33.622Z,96686.00
2022-09-28T04:43:02.326Z,96679.00
2022-09-28T04:45:30.716Z,96688.09
2022-09-28T04:47:59.171Z,96680.03
2022-09-28T04:50:27.603Z,96681.44
2022-09-28T04:52:56.105Z,96682.28
2022-09-28T04:55:25.888Z,96686.63
2022-09-28T04:57:54.543Z,96686.38
2022-09-28T05:00:22.950Z,96685.56
2022-09-28T05:02:51.420Z,96678.31
2022-09-28T05:05:20.366Z,96681.84
2022-09-28T05:07:48.897Z,96685.13
2022-09-28T05:10:20.148Z,96688.66
2022-09-28T05:12:50.015Z,96688.41
2022-09-28T05:15:18.777Z,96686.53
2022-09-28T05:17:47.273Z,96671.03
2022-09-28T05:20:15.899Z,96688.00
2022-09-28T05:22:44.313Z,96687.19
2022-09-28T05:25:12.808Z,96693.38
2022-09-28T05:27:41.247Z,96694.81
2022-09-28T05:30:13.020Z,96695.84
2022-09-28T05:32:42.304Z,96696.66
2022-09-28T05:35:11.256Z,96691.72
2022-09-28T05:37:41.203Z,96689.88
2022-09-28T05:40:11.000Z,96681.81
2022-09-28T05:42:39.592Z,96687.19
2022-09-28T05:45:11.259Z,96688.41
2022-09-28T05:47:40.163Z,96689.22
2022-09-28T05:50:12.014Z,96692.44
2022-09-28T05:52:40.548Z,96697.88
2022-09-28T05:55:10.139Z,96705.56
2022-09-28T05:57:38.697Z,96704.53
2022-09-28T06:00:09.026Z,96694.34
2022-09-28T06:02:38.846Z,96699.59
2022-09-28T06:05:08.338Z,96692.13
2022-09-28T06:07:36.780Z,96695.84
2022-09-28T06:10:06.264Z,96693.16
2022-09-28T06:12:35.414Z,96694.41
2022-09-28T06:15:03.790Z,96697.09
2022-09-28T06:17:34.786Z,96695.44
2022-09-28T06:20:08.980Z,96688.19
2022-09-28T06:22:37.617Z,96690.69
2022-09-28T06:25:07.846Z,96683.22
2022-09-28T06:27:36.284Z,96681.34
2022-09-28T06:30:05.343Z,96673.06
2022-09-28T06:32:33.808Z,96673.06
2022-09-28T06:35:02.222Z,96674.94
2022-09-28T06:37:33.110Z,96681.34
2022-09-28T06:40:02.169Z,96676.59
2022-09-28T06:42:30.698Z,96671.81
2022-09-28T06:44:59.360Z,96673.69
2022-09-28T06:47:27.797Z,96681.50
2022-09-28T06:49:56.393Z,96684.22
2022-09-28T06:52:25.602Z,96683.38
2022-09-28T06:54:55.498Z,96687.13
2022-09-28T06:57:23.990Z,96686.28
2022-09-28T06:59:52.411Z,96678.22
2022-09-28T07:02:22.133Z,96684.66
2022-09-28T07:04:50.601Z,96688.16
2022-09-28T07:07:19.057Z,96686.91
2022-09-28T07:09:51.259Z,96683.59
2022-09-28T07:12:21.881Z,96680.69
2022-09-28T07:14:56.309Z,96690.84
2022-09-28T07:17:24.951Z,96685.88
2022-09-28T07:19:53.827Z,96690.19
2022-09-28T07:22:36.061Z,96685.63
2022-09-28T07:25:09.283Z,96678.63
2022-09-28T07:27:39.625Z,96686.44
2022-09-28T07:30:09.799Z,96690.56
2022-09-28T07:32:39.090Z,96682.94
2022-09-28T07:35:09.221Z,96689.13
2022-09-28T07:37:39.510Z,96683.75
2022-09-28T07:40:26.930Z,96683.19
2022-09-28T07:42:56.874Z,96678.63
2022-09-28T07:45:25.435Z,96686.25
2022-09-28T07:47:56.596Z,96687.06
2022-09-28T07:50:25.378Z,96676.91
2022-09-28T07:52:53.794Z,96677.94
2022-09-28T07:55:22.207Z,96680.41
2022-09-28T07:58:01.192Z,96686.59
2022-09-28T08:00:33.920Z,96693.84
2022-09-28T08:03:02.874Z,96682.88
2022-09-28T08:05:32.263Z,96690.13
2022-09-28T08:08:00.712Z,96696.09
2022-09-28T08:10:29.233Z,96690.72
2022-09-28T08:13:02.839Z,96696.91
2022-09-28T08:15:37.069Z,96688.84
2022-09-28T08:18:05.911Z,96680.78
2022-09-28T08:20:51.862Z,96687.00
2022-09-28T08:23:20.777Z,96687.81
2022-09-28T08:25:50.005Z,96680.56
2022-09-28T08:28:19.780Z,96677.66
2022-09-28T08:30:48.574Z,96679.31
2022-09-28T08:33:18.660Z,96675.78
2022-09-28T08:35:47.191Z,96671.44
2022-09-28T08:38:15.799Z,96674.97
2022-09-28T08:40:55.673Z,96662.34
2022-09-28T08:43:48.836Z,96671.22
2022-09-28T08:46:19.052Z,96665.84
2022-09-28T08:49:13.441Z,96655.09
2022-09-28T08:51:46.461Z,96668.53
2022-09-28T08:54:28.583Z,96671.22
2022-09-28T08:56:59.801Z,96667.47
2022-09-28T08:59:37.422Z,96672.88
2022-09-28T09:02:05.995Z,96674.53
2022-09-28T09:04:34.468Z,96670.19
2022-09-28T09:07:33.905Z,96677.66
2022-09-28T09:10:09.918Z,96676.00
2022-09-28T09:12:43.226Z,96677.44
2022-09-28T09:15:22.930Z,96682.81
2022-09-28T09:18:01.217Z,96681.75
2022-09-28T09:20:37.238Z,96680.72
2022-09-28T09:23:09.541Z,96688.19
2022-09-28T09:25:42.513Z,96689.00
2022-09-28T09:28:49.392Z,96688.63
2022-09-28T09:31:28.572Z,96680.56
2022-09-28T09:34:35.429Z,96689.47
2022-09-28T09:37:18.728Z,96684.06
2022-09-28T09:39:59.662Z,96676.00
2022-09-28T09:42:39.757Z,96682.19
2022-09-28T09:45:19.989Z,96684.06
2022-09-28T09:47:51.547Z,96679.75
2022-09-28T09:50:29.775Z,96679.34
2022-09-28T09:53:01.977Z,96686.59
2022-09-28T09:55:33.139Z,96670.47
2022-09-28T09:58:05.838Z,96669.66
2022-09-28T10:00:34.637Z,96659.72
2022-09-28T10:03:04.458Z,96665.09
2022-09-28T10:05:32.935Z,96663.47
2022-09-28T10:08:04.432Z,96668.38
2022-09-28T10:10:36.272Z,96671.06
2022-09-28T10:13:04.981Z,96660.69
2022-09-28T10:15:35.395Z,96656.72
2022-09-28T10:18:07.831Z,96654.03
2022-09-28T10:20:38.779Z,96646.41
2022-09-28T10:23:12.437Z,96658.22
2022-09-28T10:25:40.895Z,96659.50
2022-09-28T10:28:11.555Z,96656.81
2022-09-28T10:30:42.137Z,96653.31
2022-09-28T10:33:29.093Z,96648.13
2022-09-28T10:35:57.695Z,96645.44
2022-09-28T10:38:26.273Z,96643.56
2022-09-28T10:40:55.964Z,96638.44
2022-09-28T10:43:26.204Z,96640.06
2022-09-28T10:46:02.115Z,96631.19
2022-09-28T10:48:34.885Z,96629.53
2022-09-28T10:51:06.875Z,96615.50
2022-09-28T10:53:37.147Z,96609.66
2022-09-28T10:56:08.183Z,96604.28
2022-09-28T10:58:39.914Z,96603.22
2022-09-28T11:01:10.742Z,96608.59
2022-09-28T11:03:50.924Z,96595.16
2022-09-28T11:06:26.594Z,96599.28
2022-09-28T11:08:56.316Z,96600.53
2022-09-28T11:11:26.528Z,96598.91
2022-09-28T11:13:57.166Z,96598.09
2022-09-28T11:16:30.383Z,96591.06
2022-09-28T11:19:05.435Z,96581.34
2022-09-28T11:21:43.582Z,96584.84
2022-09-28T11:24:21.052Z,96581.34
2022-09-28T11:26:52.637Z,96573.28
2022-09-28T11:29:23.768Z,96575.97
2022-09-28T11:31:52.301Z,96589.41
2022-09-28T11:34:36.470Z,96584.03
2022-09-28T11:37:53.823Z,96585.09
2022-09-28T11:40:30.851Z,96584.84
2022-09-28T11:43:09.480Z,96587.53
2022-09-28T11:45:49.900Z,96568.72
2022-09-28T11:48:20.068Z,96575.16
2022-09-28T11:50:51.646Z,96574.34
2022-09-28T11:53:24.516Z,96568.97
2022-09-28T11:55:58.424Z,96574.91
2022-09-28T11:58:30.987Z,96562.53
2022-09-28T12:01:04.161Z,96559.03
2022-09-28T12:03:37.080Z,96561.25
2022-09-28T12:06:08.994Z,96564.97
2022-09-28T12:08:42.370Z,96560.44
2022-09-28T12:11:16.896Z,96564.75
2022-09-28T12:13:47.836Z,96562.28
2022-09-28T12:16:45.678Z,96557.75
2022-09-28T12:19:14.817Z,96561.25
2022-09-28T12:21:47.001Z,96565.81
2022-09-28T12:24:21.240Z,96563.69
2022-09-28T12:26:53.238Z,96562.06
2022-09-28T12:29:24.731Z,96549.69
2022-09-28T12:31:59.480Z,96562.28
2022-09-28T12:34:27.966Z,96552.38
2022-09-28T12:37:13.159Z,96547.00
2022-09-28T12:39:58.111Z,96546.75
2022-09-28T12:42:41.371Z,96549.69
2022-09-28T12:45:21.053Z,96536.44
2022-09-28T12:48:31.233Z,96533.53
2022-09-28T12:51:05.701Z,96532.13
2022-09-28T12:54:01.790Z,96539.75
2022-09-28T12:56:36.147Z,96542.44
2022-09-28T12:59:16.417Z,96528.16
2022-09-28T13:02:17.198Z,96520.66
2022-09-28T13:05:03.678Z,96533.91
2022-09-28T13:07:37.952Z,96528.53
2022-09-28T13:10:16.824Z,96535.19
2022-09-28T13:12:55.544Z,96534.34
2022-09-28T13:15:33.301Z,96534.34
2022-09-28T13:18:17.902Z,96534.34
2022-09-28T13:21:01.538Z,96522.78
2022-09-28T13:23:32.186Z,96524.63
2022-09-28T13:26:05.075Z,96528.16
2022-09-28T13:28:33.833Z,96527.91
2022-09-28T13:31:02.331Z,96529.78
2022-09-28T13:33:36.932Z,96531.66
2022-09-28T13:36:06.401Z,96532.47
2022-09-28T13:38:52.060Z,96526.16
2022-09-28T13:41:29.126Z,96525.09
2022-09-28T13:44:32.918Z,96516.00
2022-09-28T13:47:27.697Z,96515.38
2022-09-28T13:50:05.219Z,96521.59
2022-09-28T13:52:42.078Z,96515.38
2022-09-28T13:55:27.627Z,96509.19
2022-09-28T13:58:00.128Z,96506.50
2022-09-28T14:00:30.860Z,96508.13
2022-09-28T14:03:04.768Z,96511.28
2022-09-28T14:06:05.020Z,96503.00
2022-09-28T14:08:36.725Z,96498.78
2022-09-28T14:11:55.710Z,96497.16
2022-09-28T14:14:48.669Z,96496.56
2022-09-28T14:18:02.227Z,96487.22
2022-09-28T14:20:31.878Z,96496.09
2022-09-28T14:24:00.319Z,96483.72
2022-09-28T14:27:03.946Z,96486.41
2022-09-28T14:29:35.304Z,96485.34
2022-09-28T14:32:06.437Z,96475.66
2022-09-28T14:34:37.506Z,96489.91
2022-09-28T14:37:34.977Z,96474.59
2022-09-28T14:40:28.428Z,96469.22
2022-09-28T14:43:27.263Z,96472.72
2022-09-28T14:46:43.521Z,96464.44
2022-09-28T14:49:50.279Z,96462.78
2022-09-28T14:52:40.925Z,96473.53
2022-09-28T14:55:15.526Z,96461.16
2022-09-28T14:57:44.143Z,96467.34
2022-09-28T15:00:20.458Z,96453.88
2022-09-28T15:02:52.737Z,96456.56
2022-09-28T15:05:25.011Z,96445.81
2022-09-28T15:07:55.294Z,96454.72
2022-09-28T15:10:32.285Z,96452.00
2022-09-28T15:13:02.366Z,96461.16
2022-09-28T15:15:34.608Z,96459.06
2022-09-28T15:18:44.109Z,96461.97
2022-09-28T15:21:12.726Z,96471.91
2022-09-28T15:23:43.321Z,96470.03
2022-09-28T15:26:23.634Z,96470.28
2022-09-28T15:28:52.099Z,96475.19
2022-09-28T15:31:22.333Z,96476.22
2022-09-28T15:34:09.666Z,96473.53
2022-09-28T15:36:39.765Z,96468.16
2022-09-28T15:39:13.304Z,96486.41
2022-09-28T15:41:42.996Z,96501.28
2022-09-28T15:44:30.525Z,96518.22
2022-09-28T15:47:11.120Z,96529.19
2022-09-28T15:49:44.532Z,96531.72
2022-09-28T15:52:26.283Z,96531.53
2022-09-28T15:54:55.104Z,96520.75
2022-09-28T15:57:40.060Z,96517.00
2022-09-28T16:00:24.786Z,96507.09
2022-09-28T16:03:06.043Z,96513.31
2022-09-28T16:05:43.065Z,96510.59
2022-09-28T16:08:21.431Z,96502.31
2022-09-28T16:10:59.068Z,96500.88
2022-09-28T16:13:27.594Z,96495.28
2022-09-28T16:15:59.859Z,96492.59
2022-09-28T16:18:29.057Z,96502.09
2022-09-28T16:21:03.934Z,96508.50
2022-09-28T16:23:34.048Z,96512.38
2022-09-28T16:26:04.087Z,96512.38
2022-09-28T16:28:52.002Z,96499.75
2022-09-28T16:31:28.463Z,96502.00
2022-09-28T16:33:59.084Z,96511.31
2022-09-28T16:36:30.388Z,96514.00
2022-09-28T16:38:58.939Z,96516.34
2022-09-28T16:41:28.994Z,96503.50
2022-09-28T16:44:01.170Z,96501.03
2022-09-28T16:46:34.324Z,96497.31
2022-09-28T16:49:03.271Z,96492.75
2022-09-28T16:51:33.655Z,96493.34
2022-09-28T16:54:25.574Z,96507.81
2022-09-28T16:56:54.094Z,96511.56
2022-09-28T16:59:22.913Z,96508.63
2022-09-28T17:01:51.388Z,96509.69
2022-09-28T17:04:19.912Z,96515.06
2022-09-28T17:06:50.441Z,96515.06
2022-09-28T17:09:18.890Z,96520.47
2022-09-28T17:11:47.358Z,96520.00
2022-09-28T17:14:15.789Z,96534.50
2022-09-28T17:17:06.976Z,96539.88
2022-09-28T17:19:33.158Z,96529.13
2022-09-28T17:22:03.500Z,96527.25
2022-09-28T17:24:32.171Z,96523.97
2022-09-28T17:27:01.287Z,96528.88
2022-09-28T17:29:30.062Z,96528.88
2022-09-28T17:31:58.555Z,96532.41
2022-09-28T17:34:27.077Z,96535.94
2022-09-28T17:36:56.039Z,96536.13
2022-09-28T17:39:25.982Z,96539.63
2022-09-28T17:41:54.369Z,96542.56
2022-09-28T17:44:22.849Z,96545.47
2022-09-28T17:46:52.340Z,96545.25
2022-09-28T17:49:20.886Z,96553.94
2022-09-28T17:51:50.340Z,96548.78
2022-09-28T17:54:20.841Z,96564.09
2022-09-28T17:56:50.945Z,96576.94
2022-09-28T17:59:19.773Z,96570.28
2022-09-28T18:01:48.573Z,96580.44
2022-09-28T18:04:39.597Z,96574.25
2022-09-28T18:07:05.682Z,96575.88
2022-09-28T18:09:34.216Z,96568.66
2022-09-28T18:12:06.441Z,96580.09
2022-09-28T18:14:35.966Z,96577.16
2022-09-28T18:17:04.933Z,96581.50
2022-09-28T18:19:33.728Z,96591.19
2022-09-28T18:22:02.502Z,96599.28
2022-09-28T18:24:32.700Z,96605.47
2022-09-28T18:27:01.377Z,96602.78
2022-09-28T18:29:33.530Z,96600.31
2022-09-28T18:32:03.206Z,96589.94
2022-09-28T18:34:31.826Z,96591.00
2022-09-28T18:37:00.654Z,96588.31
2022-09-28T18:39:29.517Z,96594.28
2022-09-28T18:41:58.179Z,96585.59
2022-09-28T18:44:27.137Z,96594.72
2022-09-28T18:46:57.214Z,96597.41
2022-09-28T18:49:26.134Z,96596.38
2022-09-28T18:51:54.885Z,96600.09
2022-09-28T18:54:23.575Z,96611.44
2022-09-28T18:56:56.376Z,96607.94
2022-09-28T18:59:25.003Z,96609.22
2022-09-28T19:01:53.718Z,96623.47
2022-09-28T19:04:25.124Z,96626.78
2022-09-28T19:06:54.459Z,96621.19
2022-09-28T19:09:24.788Z,96625.25
2022-09-28T19:11:53.336Z,96624.91
2022-09-28T19:14:22.315Z,96626.31
2022-09-28T19:16:50.773Z,96614.13
2022-09-28T19:19:21.014Z,96624.09
2022-09-28T19:21:51.069Z,96619.53
2022-09-28T19:24:20.061Z,96616.22
2022-09-28T19:26:48.574Z,96614.59
2022-09-28T19:29:17.187Z,96625.34
2022-09-28T19:31:45.612Z,96617.28
2022-09-28T19:34:14.412Z,96631.53
2022-09-28T19:36:43.165Z,96633.22
2022-09-28T19:39:15.056Z,96639.41
2022-09-28T19:41:48.066Z,96643.13
2022-09-28T19:44:19.528Z,96649.09
2022-09-28T19:46:48.190Z,96637.53
2022-09-28T19:49:19.678Z,96647.47
2022-09-28T19:52:11.591Z,96649.56
2022-09-28T19:54:39.728Z,96654.72
2022-09-28T19:57:08.851Z,96665.50
2022-09-28T19:59:37.509Z,96659.25
2022-09-28T20:02:06.787Z,96656.34
2022-09-28T20:04:35.312Z,96670.03
2022-09-28T20:07:04.527Z,96668.19
2022-09-28T20:09:33.530Z,96655.53
2022-09-28T20:12:03.616Z,96650.38
2022-09-28T20:14:37.702Z,96664.63
2022-09-28T20:17:08.039Z,96667.34
2022-09-28T20:19:36.567Z,96667.34
2022-09-28T20:22:05.438Z,96686.16
2022-09-28T20:24:33.944Z,96689.91
2022-09-28T20:27:04.190Z,96693.41
2022-09-28T20:29:33.641Z,96697.97
2022-09-28T20:32:04.017Z,96714.72
2022-09-28T20:34:33.642Z,96707.69
2022-09-28T20:37:02.678Z,96702.53
2022-09-28T20:39:31.144Z,96697.16
2022-09-28T20:41:59.657Z,96690.72
2022-09-28T20:44:29.606Z,96689.91
2022-09-28T20:46:58.018Z,96694.47
2022-09-28T20:49:28.061Z,96707.09
2022-09-28T20:51:56.576Z,96704.41
2022-09-28T20:54:25.603Z,96711.41
2022-09-28T20:56:53.973Z,96719.69
2022-09-28T20:59:25.985Z,96715.97
2022-09-28T21:01:55.953Z,96704.41
2022-09-28T21:04:24.513Z,96711.63
2022-09-28T21:06:53.265Z,96713.50
2022-09-28T21:09:22.278Z,96730.47
2022-09-28T21:11:50.761Z,96724.25
2022-09-28T21:14:19.295Z,96726.94
2022-09-28T21:16:48.020Z,96738.53
2022-09-28T21:19:22.473Z,96728.81
2022-09-28T21:21:51.179Z,96728.81
2022-09-28T21:24:19.814Z,96724.25
2022-09-28T21:26:48.504Z,96726.13
2022-09-28T21:29:17.011Z,96718.06
2022-09-28T21:31:46.810Z,96734.19
2022-09-28T21:34:19.410Z,96728.81
2022-09-28T21:36:51.369Z,96726.34
2022-09-28T21:39:20.398Z,96728.00
2022-09-28T21:41:48.976Z,96749.53
2022-09-28T21:44:17.497Z,96754.91
2022-09-28T21:46:46.090Z,96765.66
2022-09-28T21:49:14.501Z,96768.34
2022-09-28T21:51:42.969Z,96774.53
2022-09-28T21:54:13.811Z,96779.09
2022-09-28T21:56:42.300Z,96781.78
2022-09-28T21:59:10.737Z,96772.91
2022-09-28T22:01:39.210Z,96774.75
2022-09-28T22:04:07.621Z,96776.63
2022-09-28T22:06:36.007Z,96774.75
2022-09-28T22:09:05.501Z,96776.63
2022-09-28T22:11:35.255Z,96780.13
2022-09-28T22:14:03.772Z,96775.59
2022-09-28T22:16:32.521Z,96774.75
2022-09-28T22:19:00.968Z,96778.50
2022-09-28T22:21:30.533Z,96775.81
2022-09-28T22:24:01.186Z,96776.63
2022-09-28T22:26:30.109Z,96790.88
2022-09-28T22:29:01.651Z,96792.75
2022-09-28T22:31:31.465Z,96798.97
2022-09-28T22:34:00.112Z,96796.28
2022-09-28T22:36:28.900Z,96807.03
2022-09-28T22:38:57.859Z,96808.91
2022-09-28T22:41:26.358Z,96808.09
2022-09-28T22:43:55.154Z,96805.41
2022-09-28T22:46:26.426Z,96813.47
2022-09-28T22:48:56.300Z,96812.66
2022-09-28T22:51:26.114Z,96816.16
2022-09-28T22:53:54.623Z,96810.78
2022-09-28T22:56:23.039Z,96821.53
2022-09-28T22:58:51.516Z,96817.22
2022-09-28T23:01:21.514Z,96815.34
2022-09-28T23:03:51.936Z,96836.03
2022-09-28T23:06:23.439Z,96824.47
2022-09-28T23:08:52.177Z,96829.84
2022-09-28T23:11:20.798Z,96833.34
2022-09-28T23:13:52.637Z,96825.28
2022-09-28T23:16:23.554Z,96820.91
2022-09-28T23:18:54.027Z,96823.59
2022-09-28T23:21:23.559Z,96818.22
2022-09-28T23:23:56.376Z,96816.59
2022-09-28T23:26:26.251Z,96808.53
2022-09-28T23:28:55.483Z,96805.84
2022-09-28T23:31:25.229Z,96804.78
2022-09-28T23:33:58.734Z,96800.47
2022-09-28T23:36:27.245Z,96805.63
2022-09-28T23:38:55.867Z,96810.16
2022-09-28T23:41:24.297Z,96829.22
2022-09-28T23:43:53.048Z,96825.72
2022-09-28T23:46:21.558Z,96826.53
2022-09-28T23:48:50.192Z,96833.78
2022-09-28T23:51:19.999Z,96833.78
2022-09-28T23:53:48.453Z,96843.50
2022-09-28T23:56:17.131Z,96848.88
2022-09-28T23:58:45.587Z,96852.59
